Time;durP1;ratioP1;P1;durP2;ratioP2;P2;SDS_P1;SDS_P2;PMS_P1;PMS_P2;Temp;Humidity;BMP_temperature;BMP_pressure;BME280_temperature;BME280_humidity;BME280_pressure;Samples;Min_cycle;Max_cycle;Signal;HPM_P1;HPM_P2
2023/01/14 00:01:44;;;;;;;18.15;11.20;;;;;;;1.96;92.02;101163.66;10455402;28;20044;-74
2023/01/14 00:06:45;;;;;;;25.00;12.23;;;;;;;1.71;92.12;101127.63;10454965;28;20040;-74
2023/01/14 00:11:51;;;;;;;28.05;11.15;;;;;;;1.33;92.01;101078.38;10454035;28;20060;-74
2023/01/14 00:16:53;;;;;;;19.95;10.63;;;;;;;1.21;92.18;101059.94;10454132;28;20052;-74
2023/01/14 00:21:57;;;;;;;29.33;10.55;;;;;;;1.55;92.13;101132.91;10454023;28;20603;-73
2023/01/14 00:26:58;;;;;;;19.70;10.70;;;;;;;1.65;92.71;101154.19;10454785;28;20040;-73
2023/01/14 00:32:03;;;;;;;23.75;11.18;;;;;;;1.30;92.78;101117.81;10454497;28;20048;-74
2023/01/14 00:37:04;;;;;;;24.45;11.90;;;;;;;1.15;92.72;101103.00;10454291;28;20041;-74
2023/01/14 00:42:04;;;;;;;26.75;12.00;;;;;;;0.86;93.12;101079.34;10453388;28;20492;-73
2023/01/14 00:47:05;;;;;;;26.65;11.88;;;;;;;1.43;92.98;101164.22;10454469;28;20135;-74
2023/01/14 00:52:06;;;;;;;22.85;12.98;;;;;;;1.39;92.93;101157.50;10425182;28;20045;-74
2023/01/14 00:57:07;;;;;;;25.73;12.55;;;;;;;1.04;92.75;101089.69;10412036;28;20034;-74
2023/01/14 01:02:07;;;;;;;23.48;12.40;;;;;;;1.49;93.26;101156.00;10427347;28;20044;-74
2023/01/14 01:07:09;;;;;;;26.35;12.45;;;;;;;1.05;93.01;101075.69;10453137;28;20044;-74
2023/01/14 01:12:10;;;;;;;24.20;12.23;;;;;;;1.21;92.90;101102.66;10453242;28;20084;-74
2023/01/14 01:17:10;;;;;;;27.02;12.65;;;;;;;1.07;92.90;101079.88;10453029;28;20040;-74
2023/01/14 01:22:11;;;;;;;20.15;11.30;;;;;;;1.15;92.51;101079.47;10453384;28;20053;-74
2023/01/14 01:27:12;;;;;;;27.17;11.77;;;;;;;1.06;92.44;101080.81;10460991;28;20049;-74
2023/01/14 01:32:13;;;;;;;20.38;12.07;;;;;;;1.58;92.19;101174.63;10461485;28;20041;-74
2023/01/14 01:37:13;;;;;;;27.48;12.00;;;;;;;0.94;92.40;101072.84;10460782;28;20537;-74
2023/01/14 01:42:15;;;;;;;27.95;12.52;;;;;;;1.50;92.20;101176.03;10458876;28;20398;-74
2023/01/14 01:47:18;;;;;;;24.92;12.77;;;;;;;0.79;92.43;101059.72;10458517;28;20068;-74
2023/01/14 01:52:24;;;;;;;27.45;12.65;;;;;;;1.22;92.24;101146.19;10461048;28;20447;-74
2023/01/14 01:57:26;;;;;;;28.02;12.80;;;;;;;0.90;92.37;101085.28;10458572;28;20052;-74
2023/01/14 02:02:28;;;;;;;30.15;12.88;;;;;;;1.24;92.41;101144.34;10459480;28;20385;-74
2023/01/14 02:07:29;;;;;;;25.90;12.68;;;;;;;0.99;92.38;101104.81;10459083;28;20044;-74
2023/01/14 02:12:38;;;;;;;28.70;12.98;;;;;;;1.52;92.03;101179.41;10459655;28;20053;-74
2023/01/14 02:18:16;;;;;;;27.17;12.32;;;;;;;1.40;92.24;101154.75;10458842;28;20041;-75
2023/01/14 02:23:50;;;;;;;24.60;12.35;;;;;;;1.59;92.32;101176.34;10458527;28;20048;-74
2023/01/14 02:29:33;;;;;;;27.85;12.30;;;;;;;1.63;92.00;101177.00;10458228;28;20055;-74
2023/01/14 02:34:52;;;;;;;25.45;11.10;;;;;;;1.62;91.92;101182.34;10457865;28;20511;-74
2023/01/14 02:40:33;;;;;;;22.63;12.52;;;;;;;1.72;91.62;101178.22;10458305;28;20044;-74
2023/01/14 02:46:05;;;;;;;24.55;12.18;;;;;;;1.80;91.64;101189.94;10456954;28;20098;-74
2023/01/14 02:51:07;;;;;;;31.13;11.90;;;;;;;1.71;91.71;101187.88;10455296;28;20457;-74
2023/01/14 02:56:10;;;;;;;24.77;12.10;;;;;;;1.42;91.30;101133.75;10457033;28;20072;-74
2023/01/14 03:01:42;;;;;;;19.38;10.65;;;;;;;1.86;91.34;101191.38;10457234;28;20400;-74
2023/01/14 03:06:47;;;;;;;21.38;11.07;;;;;;;1.82;91.48;101177.63;10457144;28;20095;-74
2023/01/14 03:12:15;;;;;;;26.52;12.20;;;;;;;1.91;90.64;101184.06;10457197;28;20057;-74
2023/01/14 03:17:34;;;;;;;30.67;13.65;;;;;;;1.73;91.24;101145.84;10451831;28;20053;-74
2023/01/14 03:22:36;;;;;;;22.58;13.00;;;;;;;1.65;90.81;101133.22;10454631;28;20049;-74
2023/01/14 03:27:39;;;;;;;22.75;12.55;;;;;;;1.20;90.97;101053.88;10438933;28;20041;-74
2023/01/14 03:32:45;;;;;;;25.58;13.18;;;;;;;1.62;90.58;101132.59;10415551;28;20401;-74
2023/01/14 03:37:51;;;;;;;23.73;11.57;;;;;;;1.87;90.88;101173.88;10414658;28;20041;-74
2023/01/14 03:43:00;;;;;;;31.42;13.23;;;;;;;1.95;90.21;101184.75;10415029;28;20049;-74
2023/01/14 03:48:01;;;;;;;28.73;13.45;;;;;;;1.87;90.61;101185.19;10413712;28;20451;-74
2023/01/14 03:53:19;;;;;;;27.55;13.38;;;;;;;1.97;90.27;101201.19;10381892;28;20040;-74
2023/01/14 03:58:28;;;;;;;31.15;11.52;;;;;;;1.95;90.76;101200.47;10372608;28;20128;-74
2023/01/14 04:03:29;;;;;;;27.48;13.18;;;;;;;1.93;90.46;101205.78;10371246;28;20041;-74
2023/01/14 04:08:31;;;;;;;30.98;13.85;;;;;;;1.89;90.39;101201.66;10371877;28;20095;-74
2023/01/14 04:18:50;;;;;;;28.00;13.73;;;;;;;1.59;90.66;101165.88;10371845;28;20133;-75
2023/01/14 04:23:51;;;;;;;29.23;13.73;;;;;;;1.73;90.51;101188.59;10370864;28;20038;-74
2023/01/14 04:28:52;;;;;;;31.17;13.88;;;;;;;1.59;90.62;101160.63;10421146;28;20042;-75
2023/01/14 04:33:53;;;;;;;24.33;12.02;;;;;;;1.64;90.54;101165.56;10448733;28;20037;-76
2023/01/14 04:38:54;;;;;;;47.17;10.75;;;;;;;1.86;90.77;101194.00;10454293;28;20484;-76
2023/01/14 04:43:54;;;;;;;38.10;9.48;;;;;;;1.86;91.22;101193.16;10454129;28;20508;-76
2023/01/14 04:48:55;;;;;;;41.33;7.35;;;;;;;2.02;91.59;101207.84;10453575;28;20412;-76
2023/01/14 04:53:56;;;;;;;36.50;6.10;;;;;;;2.11;92.32;101206.44;10449084;28;20034;-76
2023/01/14 04:59:02;;;;;;;42.15;7.07;;;;;;;2.16;92.43;101207.03;10413214;28;20041;-76
2023/01/14 05:04:02;;;;;;;33.95;6.32;;;;;;;1.84;93.40;101140.81;10420828;28;20132;-76
2023/01/14 05:09:03;;;;;;;31.10;6.75;;;;;;;2.19;93.51;101192.91;10418584;28;20139;-75
2023/01/14 05:14:04;;;;;;;27.67;7.20;;;;;;;2.25;93.48;101201.22;10424906;28;20056;-75
2023/01/14 05:19:04;;;;;;;42.92;7.47;;;;;;;2.27;93.55;101185.38;10415630;28;20489;-74
2023/01/14 05:24:05;;;;;;;36.95;8.30;;;;;;;2.22;93.66;101185.69;10378389;28;20421;-75
2023/01/14 05:29:06;;;;;;;24.20;6.80;;;;;;;2.20;93.02;101173.59;10378564;28;20560;-75
2023/01/14 05:34:07;;;;;;;24.67;7.50;;;;;;;1.92;92.76;101127.28;10377971;28;20064;-75
2023/01/14 05:39:08;;;;;;;34.25;8.57;;;;;;;2.22;92.97;101179.59;10378537;28;20132;-76
2023/01/14 05:49:27;;;;;;;31.10;7.97;;;;;;;2.41;92.60;101200.28;10419536;28;20038;-75
2023/01/14 05:54:28;;;;;;;46.38;9.10;;;;;;;2.27;92.65;101173.16;10426304;28;20037;-76
2023/01/14 05:59:29;;;;;;;29.75;7.53;;;;;;;2.26;91.97;101168.81;10432383;28;20046;-75
2023/01/14 06:09:50;;;;;;;29.63;7.57;;;;;;;2.33;92.05;101190.25;10429717;28;20420;-74
2023/01/14 06:14:51;;;;;;;30.67;7.72;;;;;;;2.15;91.98;101149.44;10422274;28;20052;-74
2023/01/14 06:19:51;;;;;;;27.08;8.52;;;;;;;2.51;91.78;101211.88;10449315;28;20040;-75
2023/01/14 06:24:52;;;;;;;40.92;8.82;;;;;;;2.00;91.80;101154.66;10418680;28;20048;-74
2023/01/14 06:29:53;;;;;;;41.92;11.27;;;;;;;2.23;91.48;101199.63;10426565;28;20149;-75
2023/01/14 06:34:53;;;;;;;41.42;11.18;;;;;;;2.10;91.52;101191.66;10458577;28;20045;-75
2023/01/14 06:39:54;;;;;;;46.08;12.48;;;;;;;2.28;91.65;101215.94;10457876;28;20106;-76
2023/01/14 06:44:55;;;;;;;37.53;10.43;;;;;;;1.90;91.29;101137.00;10458485;28;20114;-77
2023/01/14 06:49:55;;;;;;;28.88;10.55;;;;;;;2.37;91.25;101206.66;10457949;28;20210;-76
2023/01/14 06:54:58;;;;;;;34.30;10.20;;;;;;;2.26;90.56;101189.78;10457757;28;20047;-76
2023/01/14 06:59:59;;;;;;;35.30;11.82;;;;;;;2.40;90.61;101220.44;10457368;28;20504;-77
2023/01/14 07:05:00;;;;;;;34.85;12.15;;;;;;;1.90;90.51;101134.38;10456963;28;20041;-73
2023/01/14 07:10:00;;;;;;;34.30;11.57;;;;;;;2.34;90.47;101207.69;10458085;28;20135;-73
2023/01/14 07:15:02;;;;;;;28.10;11.82;;;;;;;2.13;90.54;101186.25;10456434;28;20098;-79
2023/01/14 07:20:03;;;;;;;36.38;12.38;;;;;;;2.32;90.41;101232.31;10455959;28;20504;-79
2023/01/14 07:25:05;;;;;;;43.05;14.60;;;;;;;1.70;90.55;101143.41;10455911;28;20095;-79
2023/01/14 07:30:07;;;;;;;42.17;13.65;;;;;;;2.14;90.42;101229.03;10456740;28;20461;-80
2023/01/14 07:35:08;;;;;;;39.17;13.52;;;;;;;1.62;90.67;101157.00;10456122;28;20033;-79
2023/01/14 07:40:10;;;;;;;37.85;12.60;;;;;;;2.29;90.86;101236.78;10455387;28;20049;-79
2023/01/14 07:45:10;;;;;;;34.45;12.50;;;;;;;2.21;90.76;101220.69;10455636;28;20033;-79
2023/01/14 07:50:11;;;;;;;36.33;13.65;;;;;;;2.22;90.55;101216.31;10452877;28;20514;-78
2023/01/14 07:55:12;;;;;;;50.72;14.05;;;;;;;1.65;90.38;101125.38;10412244;28;20501;-79
2023/01/14 08:00:14;;;;;;;45.80;13.75;;;;;;;2.23;90.66;101234.53;10413963;28;20427;-80
2023/01/14 08:05:14;;;;;;;47.80;14.38;;;;;;;2.15;90.59;101202.69;10387842;28;20087;-77
2023/01/14 08:10:15;;;;;;;41.97;13.23;;;;;;;2.00;90.67;101159.06;10411146;28;20111;-76
2023/01/14 08:15:16;;;;;;;42.65;13.38;;;;;;;2.32;90.24;101203.47;10414810;28;20060;-77
2023/01/14 08:20:22;;;;;;;44.50;13.18;;;;;;;2.10;90.47;101144.50;10413471;28;20052;-79
2023/01/14 08:25:22;;;;;;;42.75;13.65;;;;;;;2.48;90.33;101212.06;10411741;28;20041;-79
2023/01/14 08:30:23;;;;;;;45.50;13.10;;;;;;;2.38;90.48;101193.44;10412764;28;20041;-79
2023/01/14 08:35:24;;;;;;;52.17;12.52;;;;;;;2.48;90.14;101201.56;10413216;28;20042;-78
2023/01/14 08:40:25;;;;;;;48.60;13.95;;;;;;;2.48;90.46;101191.09;10412986;28;20076;-79
2023/01/14 08:45:25;;;;;;;42.70;11.98;;;;;;;2.51;90.08;101175.16;10413049;28;20515;-77
2023/01/14 08:50:26;;;;;;;42.53;13.23;;;;;;;2.52;89.99;101176.88;10413051;28;20073;-78
2023/01/14 08:55:27;;;;;;;44.60;11.82;;;;;;;2.47;90.27;101160.56;10412350;28;20041;-79
2023/01/14 09:00:28;;;;;;;44.28;12.80;;;;;;;2.64;90.54;101181.34;10412067;28;20459;-79
2023/01/14 09:05:31;;;;;;;44.47;12.18;;;;;;;1.83;89.54;101034.38;10419491;28;20034;-78
2023/01/14 09:21:14;;;;;;;35.90;11.45;;;;;;;2.74;89.45;101155.34;10417366;28;20048;-78
2023/01/14 09:26:14;;;;;;;33.40;11.32;;;;;;;2.87;89.69;101177.28;10449035;28;20394;-78
2023/01/14 09:31:15;;;;;;;30.75;10.98;;;;;;;2.72;89.63;101138.88;10419478;28;20045;-78
2023/01/14 09:36:16;;;;;;;32.45;11.13;;;;;;;2.36;89.69;101045.84;10451923;28;20519;-78
2023/01/14 09:41:48;;;;;;;41.30;11.15;;;;;;;3.21;88.65;101161.97;10446906;28;20052;-79
2023/01/14 09:46:51;;;;;;;32.72;11.32;;;;;;;3.24;89.21;101140.75;10446340;28;20496;-78
2023/01/14 09:52:33;;;;;;;55.67;12.55;;;;;;;3.36;88.07;101146.97;10460180;28;20041;-79
2023/01/14 09:58:06;;;;;;;39.03;13.60;;;;;;;3.27;88.34;101151.03;10425466;28;20053;-79
2023/01/14 10:03:17;;;;;;;41.78;12.52;;;;;;;3.25;87.72;101134.53;10405967;28;20575;-79
2023/01/14 10:08:20;;;;;;;55.30;14.02;;;;;;;2.72;87.74;101033.91;10457096;28;20420;-79
2023/01/14 10:13:34;;;;;;;47.95;13.40;;;;;;;3.26;87.50;101088.13;10459094;28;20420;-78
2023/01/14 10:18:57;;;;;;;52.13;12.32;;;;;;;3.29;87.23;101077.41;10459619;28;20071;-78
2023/01/14 10:23:59;;;;;;;36.83;13.17;;;;;;;3.31;86.93;101088.66;10459295;28;20056;-77
2023/01/14 10:29:10;;;;;;;52.47;14.40;;;;;;;3.55;86.50;101121.13;10441108;28;20040;-77
2023/01/14 10:34:16;;;;;;;54.50;13.80;;;;;;;3.63;86.36;101118.00;10405551;28;20049;-77
2023/01/14 10:39:17;;;;;;;50.67;13.90;;;;;;;3.13;86.03;101027.72;10414774;28;20099;-77
2023/01/14 10:44:28;;;;;;;42.55;13.38;;;;;;;3.56;85.28;101090.44;10416937;28;20094;-77
2023/01/14 10:49:42;;;;;;;46.97;13.52;;;;;;;3.67;85.16;101091.41;10416894;28;20460;-77
2023/01/14 10:55:07;;;;;;;54.83;13.93;;;;;;;3.70;84.91;101087.72;10416691;28;20124;-77
2023/01/14 11:00:33;;;;;;;55.05;14.98;;;;;;;3.68;84.27;101060.75;10415815;28;20037;-77
2023/01/14 11:05:40;;;;;;;42.63;14.05;;;;;;;4.03;84.20;101110.84;10416207;28;20049;-77
2023/01/14 11:10:42;;;;;;;47.53;13.30;;;;;;;4.17;84.70;101106.41;10415698;28;20054;-75
2023/01/14 11:15:45;;;;;;;52.80;15.65;;;;;;;3.93;84.45;101093.19;10415192;28;20053;-77
2023/01/14 11:21:10;;;;;;;51.55;14.52;;;;;;;4.07;84.21;101117.59;10415461;28;20050;-77
2023/01/14 11:26:41;;;;;;;43.30;13.15;;;;;;;4.21;83.58;101099.97;10414909;28;20045;-77
2023/01/14 11:31:43;;;;;;;46.50;13.82;;;;;;;4.19;84.19;101104.50;10414159;28;20041;-76
2023/01/14 11:36:44;;;;;;;40.97;12.70;;;;;;;4.39;83.51;101122.34;10413346;28;20041;-76
2023/01/14 11:41:45;;;;;;;45.97;14.52;;;;;;;4.07;83.59;101074.69;10415423;28;20481;-77
2023/01/14 11:47:00;;;;;;;41.58;14.63;;;;;;;4.28;83.35;101098.63;10414604;28;20042;-76
2023/01/14 11:52:04;;;;;;;47.40;14.13;;;;;;;4.08;82.76;101050.06;10414542;28;20485;-77
2023/01/14 11:57:11;;;;;;;41.70;14.37;;;;;;;4.46;82.64;101109.63;10413861;28;20128;-77
2023/01/14 12:02:28;;;;;;;59.92;16.45;;;;;;;4.17;81.21;101059.09;10413475;28;20068;-78
2023/01/14 12:07:35;;;;;;;48.33;15.02;;;;;;;4.60;82.64;101129.66;10413416;28;20041;-78
2023/01/14 12:18:04;;;;;;;49.53;14.52;;;;;;;4.14;82.08;101096.13;10413155;28;20073;-77
2023/01/14 12:23:16;;;;;;;50.13;15.77;;;;;;;4.17;82.35;101136.19;10413475;28;20076;-78
2023/01/14 12:28:29;;;;;;;51.13;15.20;;;;;;;4.14;82.64;101149.53;10413520;28;20040;-78
2023/01/14 12:34:01;;;;;;;46.15;15.57;;;;;;;4.15;81.41;101150.38;10411384;28;20489;-78
2023/01/14 12:49:40;;;;;;;39.28;13.25;;;;;;;3.83;82.24;101156.09;10448903;28;20429;-75
2023/01/14 12:54:41;;;;;;;45.78;14.90;;;;;;;3.55;82.87;101117.69;10448274;28;20041;-76
2023/01/14 12:59:43;;;;;;;39.58;13.05;;;;;;;3.72;82.71;101141.03;10448082;28;20059;-76
2023/01/14 13:05:08;;;;;;;43.92;14.38;;;;;;;3.44;82.28;101097.41;10449281;28;20052;-76
2023/01/14 13:10:09;;;;;;;45.42;15.52;;;;;;;3.69;83.19;101161.44;10447929;28;20560;-77
2023/01/14 13:15:19;;;;;;;51.58;15.43;;;;;;;3.62;82.43;101172.34;10448094;28;20084;-77
2023/01/14 13:20:20;;;;;;;33.50;12.32;;;;;;;3.46;83.19;101176.94;10447430;28;20055;-77
2023/01/14 13:25:34;;;;;;;31.27;12.75;;;;;;;3.38;82.98;101171.31;10447712;28;20453;-77
2023/01/14 13:30:41;;;;;;;36.28;14.43;;;;;;;3.13;83.25;101156.34;10445300;28;20045;-77
2023/01/14 13:36:02;;;;;;;41.15;13.30;;;;;;;2.92;83.55;101124.47;10448003;28;20166;-77
2023/01/14 13:41:09;;;;;;;40.28;15.10;;;;;;;2.88;83.75;101125.63;10446531;28;20799;-77
2023/01/14 13:46:19;;;;;;;48.60;14.32;;;;;;;3.19;83.56;101176.97;10447350;28;20053;-78
2023/01/14 13:51:42;;;;;;;51.20;15.23;;;;;;;3.07;84.03;101162.84;10443816;28;20090;-77
2023/01/14 13:56:47;;;;;;;43.78;15.25;;;;;;;3.12;84.00;101178.31;10431322;28;20041;-77
2023/01/14 14:01:48;;;;;;;;;;;;;;;3.27;84.06;101171.22;10390738;28;20579;-78
2023/01/14 14:06:48;;;;;;;37.92;14.20;;;;;;;2.90;84.08;101147.34;10394331;28;19967;-78
2023/01/14 14:12:04;;;;;;;40.10;14.35;;;;;;;3.08;84.53;101182.06;10390825;28;20056;-78
2023/01/14 14:17:30;;;;;;;50.47;16.15;;;;;;;2.62;84.70;101104.50;10393519;28;20045;-78
2023/01/14 14:22:47;;;;;;;38.70;16.20;;;;;;;2.59;84.41;101101.25;10392460;28;20057;-78
2023/01/14 14:27:50;;;;;;;56.90;17.15;;;;;;;2.54;84.88;101108.56;10392922;28;20045;-78
2023/01/14 14:32:51;;;;;;;47.35;15.85;;;;;;;2.35;84.52;101085.28;10393870;28;20081;-78
2023/01/14 14:37:55;;;;;;;46.03;15.55;;;;;;;2.82;84.61;101162.75;10395218;28;20057;-78
2023/01/14 14:42:56;;;;;;;33.13;14.60;;;;;;;2.83;85.10;101175.75;10389938;28;20090;-77
2023/01/14 14:47:59;;;;;;;35.47;14.00;;;;;;;2.86;84.72;101216.72;10395855;28;20069;-77
2023/01/14 14:53:00;;;;;;;32.85;12.90;;;;;;;2.80;84.67;101199.56;10413101;28;20037;-77
2023/01/14 14:58:05;;;;;;;41.80;13.43;;;;;;;2.20;84.66;101113.31;10402198;28;20054;-77
2023/01/14 15:03:06;;;;;;;39.97;14.32;;;;;;;2.74;84.91;101200.78;10416898;28;20083;-77
2023/01/14 15:08:13;;;;;;;36.55;13.05;;;;;;;2.12;84.64;101095.44;10414842;28;20045;-77
2023/01/14 15:13:32;;;;;;;39.13;14.45;;;;;;;2.77;84.79;101212.03;10415427;28;20128;-77
2023/01/14 15:18:33;;;;;;;24.10;12.65;;;;;;;2.58;84.84;101218.44;10415715;28;20033;-77
2023/01/14 15:23:40;;;;;;;34.92;12.98;;;;;;;2.09;84.97;101153.28;10415730;28;20052;-76
2023/01/14 15:28:44;;;;;;;36.75;13.00;;;;;;;2.28;84.87;101193.16;10415292;28;20481;-75
2023/01/14 15:34:14;;;;;;;25.13;12.00;;;;;;;2.18;85.22;101178.09;10415775;28;20052;-76
2023/01/14 15:39:18;;;;;;;27.70;12.82;;;;;;;2.28;84.84;101200.19;10415094;28;20073;-73
2023/01/14 15:44:28;;;;;;;32.55;14.25;;;;;;;2.38;85.27;101206.56;10414579;28;20041;-76
2023/01/14 15:49:32;;;;;;;29.98;13.02;;;;;;;1.98;84.98;101153.09;10412115;28;20088;-78
2023/01/14 15:54:40;;;;;;;32.93;14.50;;;;;;;2.35;85.10;101216.41;10414190;28;20129;-77
2023/01/14 16:00:02;;;;;;;35.95;15.40;;;;;;;2.29;84.94;101225.47;10415220;28;20378;-86
2023/01/14 16:05:27;;;;;;;27.30;14.95;;;;;;;2.29;85.19;101228.09;10414143;28;20091;-75
2023/01/14 16:10:28;;;;;;;29.98;15.02;;;;;;;2.18;85.16;101214.78;10413723;28;20053;-75
2023/01/14 16:15:30;;;;;;;32.08;14.77;;;;;;;2.24;85.35;101228.38;10413665;28;20132;-76
2023/01/14 16:20:31;;;;;;;31.08;14.38;;;;;;;2.03;85.33;101196.44;10412976;28;20061;-74
2023/01/14 16:25:33;;;;;;;35.10;15.85;;;;;;;2.09;85.34;101220.59;10413404;28;20103;-77
2023/01/14 16:30:33;;;;;;;32.83;15.32;;;;;;;1.75;85.52;101193.78;10413677;28;20041;-77
2023/01/14 16:35:34;;;;;;;34.83;14.82;;;;;;;1.66;85.36;101218.72;10413485;28;20045;-77
2023/01/14 16:40:36;;;;;;;41.67;14.98;;;;;;;0.90;86.01;101109.66;10413318;28;20512;-75
2023/01/14 16:45:50;;;;;;;38.80;15.43;;;;;;;1.39;85.71;101209.84;10412103;28;20068;-78
2023/01/14 16:50:55;;;;;;;42.25;17.45;;;;;;;1.34;85.84;101218.78;10412964;28;20068;-77
2023/01/14 16:55:56;;;;;;;32.08;17.10;;;;;;;1.03;85.99;101167.34;10398558;28;20126;-78
2023/01/14 17:00:56;;;;;;;38.08;16.73;;;;;;;1.45;86.42;101238.28;10390254;28;20100;-78
2023/01/14 17:05:57;;;;;;;37.55;17.23;;;;;;;1.29;86.48;101222.63;10389246;28;20046;-78
2023/01/14 17:10:58;;;;;;;34.50;16.42;;;;;;;1.29;86.71;101233.94;10390741;28;20401;-77
2023/01/14 17:16:01;;;;;;;46.53;18.48;;;;;;;1.27;87.11;101229.72;10389774;28;20041;-77
2023/01/14 17:21:02;;;;;;;41.97;18.20;;;;;;;1.15;86.82;101220.78;10392009;28;20574;-77
2023/01/14 17:26:08;;;;;;;40.60;19.58;;;;;;;0.82;87.31;101169.41;10377814;28;20104;-78
2023/01/14 17:31:14;;;;;;;39.40;19.58;;;;;;;0.70;87.34;101151.78;10371793;28;20052;-78
2023/01/14 17:36:16;;;;;;;44.28;20.73;;;;;;;1.12;87.91;101232.25;10378813;28;20037;-78
2023/01/14 17:46:37;;;;;;;39.05;19.77;;;;;;;1.14;87.63;101219.94;10378316;28;20062;-77
2023/01/14 17:51:37;;;;;;;45.95;17.35;;;;;;;0.91;87.45;101197.66;10401172;28;20152;-78
2023/01/14 17:56:38;;;;;;;35.35;16.33;;;;;;;0.35;87.55;101131.00;10415850;28;20120;-77
2023/01/14 18:01:39;;;;;;;34.63;16.42;;;;;;;0.86;87.95;101204.06;10412388;28;20049;-77
2023/01/14 18:06:41;;;;;;;41.00;17.98;;;;;;;1.05;87.70;101233.53;10417386;28;20145;-78
2023/01/14 18:11:42;;;;;;;45.70;18.27;;;;;;;0.92;87.69;101224.66;10416408;28;20497;-78
2023/01/14 18:16:43;;;;;;;45.65;18.40;;;;;;;0.21;87.92;101110.03;10409524;28;20057;-76
2023/01/14 18:21:43;;;;;;;37.42;16.77;;;;;;;0.96;87.70;101230.56;10410557;28;20076;-77
2023/01/14 18:26:44;;;;;;;27.98;14.95;;;;;;;0.93;87.88;101225.50;10418998;28;20405;-78
2023/01/14 18:31:47;;;;;;;47.92;18.63;;;;;;;0.78;88.15;101212.34;10417265;28;20048;-77
2023/01/14 18:36:48;;;;;;;39.17;17.38;;;;;;;0.77;87.41;101221.09;10416218;28;20562;-77
2023/01/14 18:41:53;;;;;;;41.00;18.25;;;;;;;-0.01;88.02;101099.84;10417262;28;20094;-78
2023/01/14 18:46:53;;;;;;;35.60;16.77;;;;;;;0.28;87.92;101155.78;10417667;28;20062;-76
2023/01/14 18:51:54;;;;;;;37.47;17.05;;;;;;;0.68;87.91;101219.81;10415631;28;20409;-76
2023/01/14 18:56:55;;;;;;;44.30;18.90;;;;;;;0.32;88.16;101170.38;10412375;28;20051;-76
2023/01/14 19:01:57;;;;;;;42.05;18.48;;;;;;;0.36;87.93;101184.13;10416095;28;20404;-78
2023/01/14 19:06:58;;;;;;;35.45;16.48;;;;;;;0.00;88.48;101106.78;10414523;28;20125;-77
2023/01/14 19:12:01;;;;;;;37.17;16.70;;;;;;;0.58;88.25;101212.59;10416360;28;20059;-77
2023/01/14 19:17:03;;;;;;;36.10;16.38;;;;;;;0.33;88.01;101192.13;10415550;28;20532;-78
2023/01/14 19:22:03;;;;;;;45.70;18.38;;;;;;;0.30;88.04;101211.44;10415561;28;20045;-77
2023/01/14 19:27:04;;;;;;;51.80;21.05;;;;;;;0.17;88.32;101186.88;10415307;28;20493;-77
2023/01/14 19:32:06;;;;;;;41.75;17.85;;;;;;;0.24;88.83;101217.00;10414481;28;20064;-78
2023/01/14 19:37:06;;;;;;;43.97;19.50;;;;;;;0.23;89.07;101223.13;10414746;28;20052;-78
2023/01/14 19:42:07;;;;;;;45.05;19.45;;;;;;;0.35;89.21;101238.16;10414469;28;20041;-77
2023/01/14 19:47:08;;;;;;;44.83;18.38;;;;;;;0.21;88.43;101215.38;10414372;28;20100;-77
2023/01/14 19:52:08;;;;;;;44.28;18.50;;;;;;;-0.20;88.78;101156.59;10415169;28;20052;-77
2023/01/14 19:57:09;;;;;;;44.15;19.35;;;;;;;-0.27;88.44;101156.91;10412882;28;20073;-78
2023/01/14 20:02:10;;;;;;;48.58;20.20;;;;;;;-0.28;88.42;101150.00;10412221;28;20485;-77
2023/01/14 20:07:10;;;;;;;49.67;20.80;;;;;;;0.23;88.76;101249.25;10414033;28;20068;-77
2023/01/14 20:12:11;;;;;;;50.03;20.85;;;;;;;0.21;88.68;101238.91;10414096;28;20428;-77
2023/01/14 20:17:12;;;;;;;47.13;21.65;;;;;;;-0.16;89.01;101173.78;10413571;28;20555;-77
2023/01/14 20:22:13;;;;;;;41.47;20.23;;;;;;;0.06;89.03;101212.69;10413312;28;20046;-77
2023/01/14 20:27:14;;;;;;;41.60;21.17;;;;;;;-0.11;88.93;101187.47;10413555;28;20045;-77
2023/01/14 20:32:14;;;;;;;46.58;20.88;;;;;;;0.00;89.22;101187.75;10411787;28;20045;-78
2023/01/14 20:37:15;;;;;;;47.92;20.42;;;;;;;0.28;89.19;101243.81;10413200;28;20045;-77
2023/01/14 20:42:16;;;;;;;48.55;21.15;;;;;;;0.09;89.08;101213.41;10413028;28;20045;-77
2023/01/14 20:47:17;;;;;;;49.28;21.38;;;;;;;0.05;88.83;101214.47;10412567;28;20119;-77
2023/01/14 20:52:19;;;;;;;43.33;19.52;;;;;;;0.01;88.93;101199.06;10412501;28;20038;-78
2023/01/14 20:57:20;;;;;;;46.40;22.45;;;;;;;0.12;89.45;101204.53;10413522;28;20041;-77
2023/01/14 21:02:21;;;;;;;49.42;20.85;;;;;;;-0.02;89.14;101190.44;10412379;28;20073;-78
2023/01/14 21:07:22;;;;;;;44.05;21.27;;;;;;;-0.41;88.92;101119.38;10413906;28;20084;-78
2023/01/14 21:12:23;;;;;;;56.72;23.25;;;;;;;0.16;89.24;101216.53;10421550;28;20038;-78
2023/01/14 21:22:57;;;;;;;52.80;22.27;;;;;;;0.25;89.21;101226.50;10421069;28;20069;-78
2023/01/14 21:28:01;;;;;;;47.78;22.10;;;;;;;-0.42;89.00;101110.69;10420630;28;20040;-78
2023/01/14 21:33:04;;;;;;;53.10;21.85;;;;;;;0.45;89.13;101246.38;10419874;28;20047;-78
2023/01/14 21:38:05;;;;;;;47.22;20.58;;;;;;;0.07;89.58;101168.22;10418042;28;20049;-76
2023/01/14 21:43:24;;;;;;;58.05;23.10;;;;;;;0.09;89.18;101162.91;10420032;28;20045;-76
2023/01/14 21:48:25;;;;;;;54.65;23.88;;;;;;;0.26;88.71;101190.75;10419889;28;20058;-76
2023/01/14 21:53:26;;;;;;;64.93;25.35;;;;;;;0.37;89.07;101211.97;10419603;28;20493;-76
2023/01/14 21:58:27;;;;;;;54.50;24.75;;;;;;;-0.06;89.66;101169.78;10418913;28;20532;-76
2023/01/14 22:03:28;;;;;;;59.60;23.80;;;;;;;-0.28;89.37;101136.09;10418394;28;20037;-76
2023/01/14 22:08:29;;;;;;;57.25;24.05;;;;;;;-0.03;89.70;101162.66;10418376;28;20037;-76
2023/01/14 22:13:30;;;;;;;59.97;24.52;;;;;;;0.51;89.79;101242.56;10418037;28;20033;-76
2023/01/14 22:18:33;;;;;;;65.70;23.85;;;;;;;0.51;89.24;101245.19;10415534;28;20037;-76
2023/01/14 22:23:39;;;;;;;68.68;25.35;;;;;;;0.45;89.89;101242.00;10418532;28;20140;-76
2023/01/14 22:28:41;;;;;;;63.25;24.95;;;;;;;0.43;90.00;101230.75;10417403;28;20037;-76
2023/01/14 22:33:42;;;;;;;46.38;22.55;;;;;;;0.12;88.74;101183.63;10416799;28;20045;-76
2023/01/14 22:38:43;;;;;;;57.13;25.25;;;;;;;-0.10;89.69;101152.59;10417730;28;20053;-77
2023/01/14 22:43:43;;;;;;;67.35;26.70;;;;;;;0.29;89.64;101214.13;10417996;28;20033;-77
2023/01/14 22:48:44;;;;;;;47.75;20.73;;;;;;;0.45;89.98;101249.84;10416623;28;20060;-77
2023/01/14 22:53:45;;;;;;;65.05;26.25;;;;;;;0.47;89.62;101251.50;10416030;28;20048;-76
2023/01/14 22:58:45;;;;;;;65.22;27.17;;;;;;;0.00;89.51;101185.16;10416296;28;20052;-77
2023/01/14 23:03:46;;;;;;;63.03;25.45;;;;;;;0.34;89.11;101246.94;10415483;28;20033;-77
2023/01/14 23:08:47;;;;;;;56.72;24.00;;;;;;;0.32;89.70;101240.94;10416659;28;20037;-76
2023/01/14 23:13:54;;;;;;;50.90;22.95;;;;;;;0.42;89.17;101247.38;10415901;28;20110;-76
2023/01/14 23:18:55;;;;;;;53.80;24.83;;;;;;;0.26;89.15;101216.91;10416191;28;20563;-77
2023/01/14 23:23:56;;;;;;;58.40;26.27;;;;;;;0.12;89.80;101183.63;10414389;28;20065;-77
2023/01/14 23:28:57;;;;;;;49.53;25.08;;;;;;;0.48;89.06;101258.41;10415187;28;20064;-77
2023/01/14 23:33:58;;;;;;;44.78;24.13;;;;;;;0.48;89.28;101255.81;10415045;28;20045;-76
2023/01/14 23:38:59;;;;;;;54.00;26.13;;;;;;;-0.08;89.17;101177.69;10415400;28;20073;-77
2023/01/14 23:44:00;;;;;;;55.40;24.70;;;;;;;0.49;89.44;101255.75;10415799;28;20043;-77
2023/01/14 23:49:01;;;;;;;61.30;25.58;;;;;;;0.51;89.32;101255.66;10416293;28;20053;-77
2023/01/14 23:54:01;;;;;;;51.83;25.13;;;;;;;0.51;88.70;101258.25;10414285;28;20045;-77
2023/01/14 23:59:05;;;;;;;53.95;25.65;;;;;;;0.38;89.33;101245.84;10414624;28;20045;-76
